Newburg, West Virginia
Current Conditions -  °F | °C
As of 1:53 PM on Thursday 27 Nov 2014 (Local Time) from KMGW Reporting Station
Overcast Overcast  
Wind Chill: 30°   Ceiling: 4000
Heat Index: 36°   Visibility: 10mi
Dew Point: 22°   Wind: 8mph
Humidity: 57%   Direction: 300°WNW
Pressure: 30.08"   Gusts: NA
Location:  39.39°N, 79.85°W
Report Text: KMGW 271853Z 30007KT 10SM BKN040 OVC047 02/M06 A3008 RMK AO2 SLP196 T00221056
Loading
Personal Weather Stations






























Interactive Weather Map New forecast layout! Learn more

10-Day Weather Forecast

Advertisements
Track Severe Weather on mobile